sensor_id;sensor_type;location;lat;lon;timestamp;P1;durP1;ratioP1;P2;durP2;ratioP2
7881;SDS011;3986;41.884;23.466;2022-11-15T00:00:31;63.03;;;35.13;;
7881;SDS011;3986;41.884;23.466;2022-11-15T00:02:57;60.07;;;31.97;;
7881;SDS011;3986;41.884;23.466;2022-11-15T00:05:24;54.50;;;30.23;;
7881;SDS011;3986;41.884;23.466;2022-11-15T00:07:52;47.77;;;29.67;;
7881;SDS011;3986;41.884;23.466;2022-11-15T00:10:19;58.20;;;29.70;;
7881;SDS011;3986;41.884;23.466;2022-11-15T00:12:46;52.90;;;31.83;;
7881;SDS011;3986;41.884;23.466;2022-11-15T00:15:13;60.63;;;31.73;;
7881;SDS011;3986;41.884;23.466;2022-11-15T00:17:40;56.30;;;29.80;;
7881;SDS011;3986;41.884;23.466;2022-11-15T00:20:07;55.17;;;28.27;;
7881;SDS011;3986;41.884;23.466;2022-11-15T00:22:34;53.53;;;26.37;;
7881;SDS011;3986;41.884;23.466;2022-11-15T00:25:03;52.47;;;26.17;;
7881;SDS011;3986;41.884;23.466;2022-11-15T00:27:30;46.53;;;24.37;;
7881;SDS011;3986;41.884;23.466;2022-11-15T00:29:57;48.47;;;24.20;;
7881;SDS011;3986;41.884;23.466;2022-11-15T00:32:24;47.33;;;23.03;;
7881;SDS011;3986;41.884;23.466;2022-11-15T00:34:51;40.87;;;22.23;;
7881;SDS011;3986;41.884;23.466;2022-11-15T00:37:17;45.57;;;23.30;;
7881;SDS011;3986;41.884;23.466;2022-11-15T00:39:44;50.00;;;24.00;;
7881;SDS011;3986;41.884;23.466;2022-11-15T00:42:12;50.97;;;23.50;;
7881;SDS011;3986;41.884;23.466;2022-11-15T00:44:39;48.70;;;22.73;;
7881;SDS011;3986;41.884;23.466;2022-11-15T00:47:06;48.93;;;24.77;;
7881;SDS011;3986;41.884;23.466;2022-11-15T00:49:33;43.80;;;24.30;;
7881;SDS011;3986;41.884;23.466;2022-11-15T00:51:59;53.47;;;26.83;;
7881;SDS011;3986;41.884;23.466;2022-11-15T00:54:26;47.83;;;26.10;;
7881;SDS011;3986;41.884;23.466;2022-11-15T00:56:53;48.20;;;26.83;;
7881;SDS011;3986;41.884;23.466;2022-11-15T00:59:21;60.80;;;29.50;;
7881;SDS011;3986;41.884;23.466;2022-11-15T01:01:48;67.67;;;32.27;;
7881;SDS011;3986;41.884;23.466;2022-11-15T01:04:15;63.53;;;32.60;;
7881;SDS011;3986;41.884;23.466;2022-11-15T01:06:41;53.17;;;28.30;;
7881;SDS011;3986;41.884;23.466;2022-11-15T01:09:08;55.80;;;26.73;;
7881;SDS011;3986;41.884;23.466;2022-11-15T01:11:35;48.37;;;24.07;;
7881;SDS011;3986;41.884;23.466;2022-11-15T01:14:02;56.70;;;28.37;;
7881;SDS011;3986;41.884;23.466;2022-11-15T01:16:30;60.00;;;31.00;;
7881;SDS011;3986;41.884;23.466;2022-11-15T01:18:57;58.90;;;30.27;;
7881;SDS011;3986;41.884;23.466;2022-11-15T01:21:24;51.10;;;29.73;;
7881;SDS011;3986;41.884;23.466;2022-11-15T01:23:52;54.57;;;28.17;;
7881;SDS011;3986;41.884;23.466;2022-11-15T01:26:20;59.73;;;28.30;;
7881;SDS011;3986;41.884;23.466;2022-11-15T01:28:47;63.07;;;30.47;;
7881;SDS011;3986;41.884;23.466;2022-11-15T01:31:15;58.03;;;29.73;;
7881;SDS011;3986;41.884;23.466;2022-11-15T01:33:46;62.60;;;28.83;;
7881;SDS011;3986;41.884;23.466;2022-11-15T01:36:14;60.10;;;31.13;;
7881;SDS011;3986;41.884;23.466;2022-11-15T01:38:42;58.77;;;29.87;;
7881;SDS011;3986;41.884;23.466;2022-11-15T01:41:14;56.47;;;29.57;;
7881;SDS011;3986;41.884;23.466;2022-11-15T01:43:42;62.30;;;32.03;;
7881;SDS011;3986;41.884;23.466;2022-11-15T01:46:14;58.67;;;31.27;;
7881;SDS011;3986;41.884;23.466;2022-11-15T01:48:50;62.13;;;30.33;;
7881;SDS011;3986;41.884;23.466;2022-11-15T01:51:20;64.27;;;29.90;;
7881;SDS011;3986;41.884;23.466;2022-11-15T01:53:49;56.50;;;29.60;;
7881;SDS011;3986;41.884;23.466;2022-11-15T01:56:21;52.23;;;29.67;;
7881;SDS011;3986;41.884;23.466;2022-11-15T01:58:51;54.37;;;29.97;;
7881;SDS011;3986;41.884;23.466;2022-11-15T02:01:21;64.63;;;32.13;;
7881;SDS011;3986;41.884;23.466;2022-11-15T02:03:53;69.70;;;31.93;;
7881;SDS011;3986;41.884;23.466;2022-11-15T02:06:24;58.77;;;30.80;;
7881;SDS011;3986;41.884;23.466;2022-11-15T02:08:51;61.60;;;29.57;;
7881;SDS011;3986;41.884;23.466;2022-11-15T02:11:18;55.80;;;30.90;;
7881;SDS011;3986;41.884;23.466;2022-11-15T02:13:45;46.27;;;28.10;;
7881;SDS011;3986;41.884;23.466;2022-11-15T02:16:13;50.00;;;27.13;;
7881;SDS011;3986;41.884;23.466;2022-11-15T02:18:54;46.20;;;23.03;;
7881;SDS011;3986;41.884;23.466;2022-11-15T02:21:27;47.50;;;21.47;;
7881;SDS011;3986;41.884;23.466;2022-11-15T02:24:07;36.73;;;22.30;;
7881;SDS011;3986;41.884;23.466;2022-11-15T02:26:54;51.07;;;29.37;;
7881;SDS011;3986;41.884;23.466;2022-11-15T02:29:52;62.33;;;32.23;;
7881;SDS011;3986;41.884;23.466;2022-11-15T02:32:33;52.83;;;35.67;;
7881;SDS011;3986;41.884;23.466;2022-11-15T02:35:09;60.90;;;39.50;;
7881;SDS011;3986;41.884;23.466;2022-11-15T02:37:43;65.37;;;42.40;;
7881;SDS011;3986;41.884;23.466;2022-11-15T02:40:16;54.50;;;43.90;;
7881;SDS011;3986;41.884;23.466;2022-11-15T02:42:50;51.67;;;37.87;;
7881;SDS011;3986;41.884;23.466;2022-11-15T02:45:40;45.73;;;40.17;;
7881;SDS011;3986;41.884;23.466;2022-11-15T02:48:12;46.20;;;39.77;;
7881;SDS011;3986;41.884;23.466;2022-11-15T02:50:42;53.20;;;45.30;;
7881;SDS011;3986;41.884;23.466;2022-11-15T02:53:09;55.67;;;46.23;;
7881;SDS011;3986;41.884;23.466;2022-11-15T02:55:37;52.87;;;45.67;;
7881;SDS011;3986;41.884;23.466;2022-11-15T02:58:22;53.70;;;46.67;;
7881;SDS011;3986;41.884;23.466;2022-11-15T03:01:07;54.33;;;46.87;;
7881;SDS011;3986;41.884;23.466;2022-11-15T03:03:47;53.67;;;44.27;;
7881;SDS011;3986;41.884;23.466;2022-11-15T03:06:23;65.17;;;44.77;;
7881;SDS011;3986;41.884;23.466;2022-11-15T03:08:58;58.50;;;43.37;;
7881;SDS011;3986;41.884;23.466;2022-11-15T03:11:31;52.27;;;40.53;;
7881;SDS011;3986;41.884;23.466;2022-11-15T03:14:02;50.43;;;42.03;;
7881;SDS011;3986;41.884;23.466;2022-11-15T03:16:39;54.10;;;48.60;;
7881;SDS011;3986;41.884;23.466;2022-11-15T03:19:13;59.67;;;51.73;;
7881;SDS011;3986;41.884;23.466;2022-11-15T03:21:43;55.90;;;49.87;;
7881;SDS011;3986;41.884;23.466;2022-11-15T03:24:12;60.67;;;53.53;;
7881;SDS011;3986;41.884;23.466;2022-11-15T03:26:42;64.77;;;56.00;;
7881;SDS011;3986;41.884;23.466;2022-11-15T03:29:12;69.37;;;61.07;;
7881;SDS011;3986;41.884;23.466;2022-11-15T03:31:42;75.80;;;67.73;;
7881;SDS011;3986;41.884;23.466;2022-11-15T03:34:19;76.00;;;67.73;;
7881;SDS011;3986;41.884;23.466;2022-11-15T03:36:52;97.60;;;79.90;;
7881;SDS011;3986;41.884;23.466;2022-11-15T03:39:19;100.73;;;81.33;;
7881;SDS011;3986;41.884;23.466;2022-11-15T03:41:48;83.43;;;74.17;;
7881;SDS011;3986;41.884;23.466;2022-11-15T03:44:21;96.63;;;73.40;;
7881;SDS011;3986;41.884;23.466;2022-11-15T03:47:00;82.73;;;68.80;;
7881;SDS011;3986;41.884;23.466;2022-11-15T03:49:32;110.73;;;91.33;;
7881;SDS011;3986;41.884;23.466;2022-11-15T03:52:00;109.07;;;92.27;;
7881;SDS011;3986;41.884;23.466;2022-11-15T03:54:29;128.00;;;101.87;;
7881;SDS011;3986;41.884;23.466;2022-11-15T03:56:56;123.17;;;103.90;;
7881;SDS011;3986;41.884;23.466;2022-11-15T03:59:23;117.53;;;101.03;;
7881;SDS011;3986;41.884;23.466;2022-11-15T04:01:50;129.37;;;100.60;;
7881;SDS011;3986;41.884;23.466;2022-11-15T04:04:16;129.90;;;106.73;;
7881;SDS011;3986;41.884;23.466;2022-11-15T04:06:44;128.30;;;108.80;;
7881;SDS011;3986;41.884;23.466;2022-11-15T04:09:11;136.27;;;119.27;;
7881;SDS011;3986;41.884;23.466;2022-11-15T04:11:38;137.73;;;120.27;;
7881;SDS011;3986;41.884;23.466;2022-11-15T04:14:05;149.60;;;123.33;;
7881;SDS011;3986;41.884;23.466;2022-11-15T04:16:32;154.80;;;122.20;;
7881;SDS011;3986;41.884;23.466;2022-11-15T04:18:58;144.50;;;117.93;;
7881;SDS011;3986;41.884;23.466;2022-11-15T04:21:42;144.17;;;116.63;;
7881;SDS011;3986;41.884;23.466;2022-11-15T04:24:28;146.53;;;113.07;;
7881;SDS011;3986;41.884;23.466;2022-11-15T04:26:55;133.83;;;109.60;;
7881;SDS011;3986;41.884;23.466;2022-11-15T04:29:22;122.27;;;100.77;;
7881;SDS011;3986;41.884;23.466;2022-11-15T04:32:00;127.17;;;100.83;;
7881;SDS011;3986;41.884;23.466;2022-11-15T04:34:27;143.80;;;113.73;;
7881;SDS011;3986;41.884;23.466;2022-11-15T04:36:55;127.97;;;102.10;;
7881;SDS011;3986;41.884;23.466;2022-11-15T04:39:41;126.70;;;112.27;;
7881;SDS011;3986;41.884;23.466;2022-11-15T04:42:09;209.77;;;186.77;;
7881;SDS011;3986;41.884;23.466;2022-11-15T04:44:37;218.10;;;195.63;;
7881;SDS011;3986;41.884;23.466;2022-11-15T04:47:04;249.43;;;222.70;;
7881;SDS011;3986;41.884;23.466;2022-11-15T04:49:31;261.00;;;233.13;;
7881;SDS011;3986;41.884;23.466;2022-11-15T04:51:59;224.70;;;200.27;;
7881;SDS011;3986;41.884;23.466;2022-11-15T04:54:26;225.23;;;194.53;;
7881;SDS011;3986;41.884;23.466;2022-11-15T04:56:53;217.30;;;194.37;;
7881;SDS011;3986;41.884;23.466;2022-11-15T04:59:19;227.20;;;202.73;;
7881;SDS011;3986;41.884;23.466;2022-11-15T05:01:46;221.70;;;197.63;;
7881;SDS011;3986;41.884;23.466;2022-11-15T05:04:13;228.30;;;203.43;;
7881;SDS011;3986;41.884;23.466;2022-11-15T05:06:44;223.67;;;199.97;;
7881;SDS011;3986;41.884;23.466;2022-11-15T05:09:13;208.10;;;186.00;;
7881;SDS011;3986;41.884;23.466;2022-11-15T05:11:40;235.40;;;210.27;;
7881;SDS011;3986;41.884;23.466;2022-11-15T05:14:07;243.00;;;217.40;;
7881;SDS011;3986;41.884;23.466;2022-11-15T05:16:34;217.63;;;194.17;;
7881;SDS011;3986;41.884;23.466;2022-11-15T05:19:02;220.87;;;196.70;;
7881;SDS011;3986;41.884;23.466;2022-11-15T05:21:29;212.10;;;189.23;;
7881;SDS011;3986;41.884;23.466;2022-11-15T05:23:56;199.07;;;176.77;;
7881;SDS011;3986;41.884;23.466;2022-11-15T05:26:25;207.93;;;181.77;;
7881;SDS011;3986;41.884;23.466;2022-11-15T05:28:52;200.43;;;178.37;;
7881;SDS011;3986;41.884;23.466;2022-11-15T05:31:20;211.73;;;188.13;;
7881;SDS011;3986;41.884;23.466;2022-11-15T05:33:48;223.50;;;196.43;;
7881;SDS011;3986;41.884;23.466;2022-11-15T05:36:16;229.00;;;203.13;;
7881;SDS011;3986;41.884;23.466;2022-11-15T05:38:48;243.97;;;215.43;;
7881;SDS011;3986;41.884;23.466;2022-11-15T05:41:16;249.97;;;222.80;;
7881;SDS011;3986;41.884;23.466;2022-11-15T05:43:48;235.23;;;207.30;;
7881;SDS011;3986;41.884;23.466;2022-11-15T05:46:16;230.13;;;201.30;;
7881;SDS011;3986;41.884;23.466;2022-11-15T05:48:44;247.87;;;206.80;;
7881;SDS011;3986;41.884;23.466;2022-11-15T05:51:13;237.40;;;206.70;;
7881;SDS011;3986;41.884;23.466;2022-11-15T05:53:43;237.20;;;206.27;;
7881;SDS011;3986;41.884;23.466;2022-11-15T05:56:11;268.47;;;199.80;;
7881;SDS011;3986;41.884;23.466;2022-11-15T05:58:38;242.27;;;197.10;;
7881;SDS011;3986;41.884;23.466;2022-11-15T06:01:06;202.97;;;169.37;;
7881;SDS011;3986;41.884;23.466;2022-11-15T06:03:33;170.53;;;140.97;;
7881;SDS011;3986;41.884;23.466;2022-11-15T06:09:05;135.73;;;103.63;;
7881;SDS011;3986;41.884;23.466;2022-11-15T06:11:32;147.67;;;93.50;;
7881;SDS011;3986;41.884;23.466;2022-11-15T06:13:58;143.57;;;92.47;;
7881;SDS011;3986;41.884;23.466;2022-11-15T06:16:25;159.70;;;96.33;;
7881;SDS011;3986;41.884;23.466;2022-11-15T06:18:52;147.20;;;102.07;;
7881;SDS011;3986;41.884;23.466;2022-11-15T06:21:19;151.27;;;109.63;;
7881;SDS011;3986;41.884;23.466;2022-11-15T06:23:45;197.87;;;110.53;;
7881;SDS011;3986;41.884;23.466;2022-11-15T06:26:14;246.90;;;115.13;;
7881;SDS011;3986;41.884;23.466;2022-11-15T06:28:40;200.43;;;118.60;;
7881;SDS011;3986;41.884;23.466;2022-11-15T06:31:08;174.33;;;118.10;;
7881;SDS011;3986;41.884;23.466;2022-11-15T06:33:36;271.23;;;124.13;;
7881;SDS011;3986;41.884;23.466;2022-11-15T06:36:04;255.63;;;124.73;;
7881;SDS011;3986;41.884;23.466;2022-11-15T06:38:32;247.50;;;129.27;;
7881;SDS011;3986;41.884;23.466;2022-11-15T06:41:03;187.43;;;123.97;;
7881;SDS011;3986;41.884;23.466;2022-11-15T06:43:33;211.63;;;140.87;;
7881;SDS011;3986;41.884;23.466;2022-11-15T06:46:00;265.73;;;158.10;;
7881;SDS011;3986;41.884;23.466;2022-11-15T06:48:27;244.53;;;154.37;;
7881;SDS011;3986;41.884;23.466;2022-11-15T06:50:56;219.47;;;147.67;;
7881;SDS011;3986;41.884;23.466;2022-11-15T06:53:24;231.83;;;148.70;;
7881;SDS011;3986;41.884;23.466;2022-11-15T06:55:52;288.73;;;197.17;;
7881;SDS011;3986;41.884;23.466;2022-11-15T06:58:24;278.87;;;197.03;;
7881;SDS011;3986;41.884;23.466;2022-11-15T07:00:52;281.23;;;202.83;;
7881;SDS011;3986;41.884;23.466;2022-11-15T07:03:20;303.07;;;212.60;;
7881;SDS011;3986;41.884;23.466;2022-11-15T07:05:51;307.80;;;226.40;;
7881;SDS011;3986;41.884;23.466;2022-11-15T07:08:19;327.50;;;253.90;;
7881;SDS011;3986;41.884;23.466;2022-11-15T07:10:46;361.17;;;284.00;;
7881;SDS011;3986;41.884;23.466;2022-11-15T07:13:13;340.03;;;285.60;;
7881;SDS011;3986;41.884;23.466;2022-11-15T07:15:40;395.87;;;311.23;;
7881;SDS011;3986;41.884;23.466;2022-11-15T07:18:08;397.20;;;316.07;;
7881;SDS011;3986;41.884;23.466;2022-11-15T07:20:35;426.17;;;340.63;;
7881;SDS011;3986;41.884;23.466;2022-11-15T07:23:02;402.97;;;330.77;;
7881;SDS011;3986;41.884;23.466;2022-11-15T07:25:30;432.90;;;308.83;;
7881;SDS011;3986;41.884;23.466;2022-11-15T07:27:58;411.70;;;312.83;;
7881;SDS011;3986;41.884;23.466;2022-11-15T07:30:25;400.90;;;311.30;;
7881;SDS011;3986;41.884;23.466;2022-11-15T07:32:53;361.13;;;287.93;;
7881;SDS011;3986;41.884;23.466;2022-11-15T07:35:22;369.33;;;271.90;;
7881;SDS011;3986;41.884;23.466;2022-11-15T07:37:55;359.47;;;267.97;;
7881;SDS011;3986;41.884;23.466;2022-11-15T07:40:23;400.60;;;318.87;;
7881;SDS011;3986;41.884;23.466;2022-11-15T07:42:50;397.87;;;320.73;;
7881;SDS011;3986;41.884;23.466;2022-11-15T07:45:21;345.20;;;267.07;;
7881;SDS011;3986;41.884;23.466;2022-11-15T07:47:48;303.97;;;253.50;;
7881;SDS011;3986;41.884;23.466;2022-11-15T07:50:16;300.10;;;250.53;;
7881;SDS011;3986;41.884;23.466;2022-11-15T07:52:44;261.30;;;233.00;;
7881;SDS011;3986;41.884;23.466;2022-11-15T07:55:11;272.50;;;236.73;;
7881;SDS011;3986;41.884;23.466;2022-11-15T07:57:38;269.77;;;220.63;;
7881;SDS011;3986;41.884;23.466;2022-11-15T08:00:06;255.13;;;214.10;;
7881;SDS011;3986;41.884;23.466;2022-11-15T08:02:33;237.83;;;198.57;;
7881;SDS011;3986;41.884;23.466;2022-11-15T08:05:00;233.47;;;192.27;;
7881;SDS011;3986;41.884;23.466;2022-11-15T08:07:28;228.37;;;185.10;;
7881;SDS011;3986;41.884;23.466;2022-11-15T08:09:57;204.50;;;177.77;;
7881;SDS011;3986;41.884;23.466;2022-11-15T08:12:26;219.67;;;182.60;;
7881;SDS011;3986;41.884;23.466;2022-11-15T08:14:53;200.63;;;167.10;;
7881;SDS011;3986;41.884;23.466;2022-11-15T08:17:20;168.53;;;134.63;;
7881;SDS011;3986;41.884;23.466;2022-11-15T08:19:48;155.00;;;132.47;;
7881;SDS011;3986;41.884;23.466;2022-11-15T08:22:15;224.20;;;144.77;;
7881;SDS011;3986;41.884;23.466;2022-11-15T08:24:42;201.80;;;138.57;;
7881;SDS011;3986;41.884;23.466;2022-11-15T08:27:11;144.47;;;129.00;;
7881;SDS011;3986;41.884;23.466;2022-11-15T08:29:41;153.37;;;137.80;;
7881;SDS011;3986;41.884;23.466;2022-11-15T08:32:08;189.40;;;136.10;;
7881;SDS011;3986;41.884;23.466;2022-11-15T08:34:36;190.13;;;126.70;;
7881;SDS011;3986;41.884;23.466;2022-11-15T08:37:03;121.68;;;107.82;;
7881;SDS011;3986;41.884;23.466;2022-11-15T08:39:30;138.38;;;117.57;;
7881;SDS011;3986;41.884;23.466;2022-11-15T08:41:57;161.70;;;108.22;;
7881;SDS011;3986;41.884;23.466;2022-11-15T08:44:25;162.10;;;116.22;;
7881;SDS011;3986;41.884;23.466;2022-11-15T08:46:52;127.43;;;106.65;;
7881;SDS011;3986;41.884;23.466;2022-11-15T08:49:19;142.18;;;106.47;;
7881;SDS011;3986;41.884;23.466;2022-11-15T08:51:46;155.23;;;114.75;;
7881;SDS011;3986;41.884;23.466;2022-11-15T08:54:13;163.63;;;121.80;;
7881;SDS011;3986;41.884;23.466;2022-11-15T08:56:40;172.43;;;136.15;;
7881;SDS011;3986;41.884;23.466;2022-11-15T08:59:06;176.20;;;144.43;;
7881;SDS011;3986;41.884;23.466;2022-11-15T09:01:35;147.50;;;117.03;;
7881;SDS011;3986;41.884;23.466;2022-11-15T09:04:02;161.77;;;117.63;;
7881;SDS011;3986;41.884;23.466;2022-11-15T09:06:29;114.32;;;101.15;;
7881;SDS011;3986;41.884;23.466;2022-11-15T09:08:56;125.40;;;98.47;;
7881;SDS011;3986;41.884;23.466;2022-11-15T09:11:23;150.43;;;115.85;;
7881;SDS011;3986;41.884;23.466;2022-11-15T09:13:51;139.55;;;125.32;;
7881;SDS011;3986;41.884;23.466;2022-11-15T09:16:19;139.55;;;124.28;;
7881;SDS011;3986;41.884;23.466;2022-11-15T09:18:47;139.10;;;120.25;;
7881;SDS011;3986;41.884;23.466;2022-11-15T09:21:14;117.68;;;99.63;;
7881;SDS011;3986;41.884;23.466;2022-11-15T09:23:41;127.18;;;91.63;;
7881;SDS011;3986;41.884;23.466;2022-11-15T09:26:08;126.75;;;88.38;;
7881;SDS011;3986;41.884;23.466;2022-11-15T09:28:35;128.32;;;100.53;;
7881;SDS011;3986;41.884;23.466;2022-11-15T09:31:04;98.78;;;85.03;;
7881;SDS011;3986;41.884;23.466;2022-11-15T09:33:31;114.47;;;96.95;;
7881;SDS011;3986;41.884;23.466;2022-11-15T09:36:04;105.03;;;94.20;;
7881;SDS011;3986;41.884;23.466;2022-11-15T09:38:33;123.75;;;96.45;;
7881;SDS011;3986;41.884;23.466;2022-11-15T09:44:08;117.07;;;60.50;;
7881;SDS011;3986;41.884;23.466;2022-11-15T09:46:53;94.20;;;57.85;;
7881;SDS011;3986;41.884;23.466;2022-11-15T09:49:28;115.20;;;51.72;;
7881;SDS011;3986;41.884;23.466;2022-11-15T09:51:58;92.03;;;42.05;;
7881;SDS011;3986;41.884;23.466;2022-11-15T09:54:26;92.15;;;38.25;;
7881;SDS011;3986;41.884;23.466;2022-11-15T09:57:04;89.72;;;32.95;;
7881;SDS011;3986;41.884;23.466;2022-11-15T09:59:44;82.97;;;37.22;;
7881;SDS011;3986;41.884;23.466;2022-11-15T10:02:23;103.45;;;32.67;;
7881;SDS011;3986;41.884;23.466;2022-11-15T10:05:04;141.95;;;35.20;;
7881;SDS011;3986;41.884;23.466;2022-11-15T10:07:37;156.07;;;31.17;;
7881;SDS011;3986;41.884;23.466;2022-11-15T10:10:20;97.03;;;24.92;;
7881;SDS011;3986;41.884;23.466;2022-11-15T10:12:50;149.15;;;30.85;;
7881;SDS011;3986;41.884;23.466;2022-11-15T10:15:19;106.25;;;25.50;;
7881;SDS011;3986;41.884;23.466;2022-11-15T10:20:46;93.75;;;26.77;;
7881;SDS011;3986;41.884;23.466;2022-11-15T10:23:17;112.40;;;25.02;;
7881;SDS011;3986;41.884;23.466;2022-11-15T10:25:46;72.90;;;22.85;;
7881;SDS011;3986;41.884;23.466;2022-11-15T10:28:16;129.52;;;49.42;;
7881;SDS011;3986;41.884;23.466;2022-11-15T10:30:51;93.72;;;26.92;;
7881;SDS011;3986;41.884;23.466;2022-11-15T10:33:22;146.32;;;25.20;;
7881;SDS011;3986;41.884;23.466;2022-11-15T10:38:54;104.15;;;24.23;;
7881;SDS011;3986;41.884;23.466;2022-11-15T10:41:29;109.65;;;25.45;;
7881;SDS011;3986;41.884;23.466;2022-11-15T10:44:02;179.70;;;30.17;;
7881;SDS011;3986;41.884;23.466;2022-11-15T10:47:20;119.05;;;28.27;;
7881;SDS011;3986;41.884;23.466;2022-11-15T10:49:59;87.15;;;27.77;;
7881;SDS011;3986;41.884;23.466;2022-11-15T10:52:33;77.25;;;21.85;;
7881;SDS011;3986;41.884;23.466;2022-11-15T10:55:05;102.53;;;21.35;;
7881;SDS011;3986;41.884;23.466;2022-11-15T10:57:48;93.03;;;24.10;;
7881;SDS011;3986;41.884;23.466;2022-11-15T11:00:26;117.22;;;24.65;;
7881;SDS011;3986;41.884;23.466;2022-11-15T11:02:58;108.35;;;24.10;;
7881;SDS011;3986;41.884;23.466;2022-11-15T11:05:27;151.80;;;24.17;;
7881;SDS011;3986;41.884;23.466;2022-11-15T11:07:57;114.63;;;22.23;;
7881;SDS011;3986;41.884;23.466;2022-11-15T11:10:27;144.98;;;23.58;;
7881;SDS011;3986;41.884;23.466;2022-11-15T11:12:54;97.38;;;19.65;;
7881;SDS011;3986;41.884;23.466;2022-11-15T11:15:22;117.75;;;20.98;;
7881;SDS011;3986;41.884;23.466;2022-11-15T11:18:01;125.15;;;21.77;;
7881;SDS011;3986;41.884;23.466;2022-11-15T11:20:37;125.53;;;21.15;;
7881;SDS011;3986;41.884;23.466;2022-11-15T11:23:20;97.40;;;20.83;;
7881;SDS011;3986;41.884;23.466;2022-11-15T11:26:05;117.07;;;24.50;;
7881;SDS011;3986;41.884;23.466;2022-11-15T11:28:44;61.85;;;18.65;;
7881;SDS011;3986;41.884;23.466;2022-11-15T11:31:20;104.47;;;29.80;;
7881;SDS011;3986;41.884;23.466;2022-11-15T11:33:56;99.78;;;27.15;;
7881;SDS011;3986;41.884;23.466;2022-11-15T11:36:34;83.93;;;24.10;;
7881;SDS011;3986;41.884;23.466;2022-11-15T11:39:17;64.70;;;21.92;;
7881;SDS011;3986;41.884;23.466;2022-11-15T11:41:55;118.32;;;36.60;;
7881;SDS011;3986;41.884;23.466;2022-11-15T11:44:29;321.67;;;41.97;;
7881;SDS011;3986;41.884;23.466;2022-11-15T11:47:00;73.63;;;31.58;;
7881;SDS011;3986;41.884;23.466;2022-11-15T11:49:29;76.60;;;31.48;;
7881;SDS011;3986;41.884;23.466;2022-11-15T11:52:02;79.38;;;34.78;;
7881;SDS011;3986;41.884;23.466;2022-11-15T11:54:36;111.00;;;34.63;;
7881;SDS011;3986;41.884;23.466;2022-11-15T11:57:10;68.20;;;34.30;;
7881;SDS011;3986;41.884;23.466;2022-11-15T11:59:44;64.35;;;37.13;;
7881;SDS011;3986;41.884;23.466;2022-11-15T12:02:17;59.28;;;31.73;;
7881;SDS011;3986;41.884;23.466;2022-11-15T12:04:51;86.60;;;42.38;;
7881;SDS011;3986;41.884;23.466;2022-11-15T12:07:21;140.55;;;46.15;;
7881;SDS011;3986;41.884;23.466;2022-11-15T12:09:53;136.75;;;60.55;;
7881;SDS011;3986;41.884;23.466;2022-11-15T12:12:27;110.05;;;41.22;;
7881;SDS011;3986;41.884;23.466;2022-11-15T12:14:59;174.05;;;75.18;;
7881;SDS011;3986;41.884;23.466;2022-11-15T12:17:31;125.55;;;70.43;;
7881;SDS011;3986;41.884;23.466;2022-11-15T12:19:59;153.35;;;43.38;;
7881;SDS011;3986;41.884;23.466;2022-11-15T12:22:28;85.95;;;25.85;;
7881;SDS011;3986;41.884;23.466;2022-11-15T12:25:03;171.18;;;35.33;;
7881;SDS011;3986;41.884;23.466;2022-11-15T12:27:36;124.53;;;32.47;;
7881;SDS011;3986;41.884;23.466;2022-11-15T12:30:08;96.95;;;29.25;;
7881;SDS011;3986;41.884;23.466;2022-11-15T12:32:38;97.47;;;34.75;;
7881;SDS011;3986;41.884;23.466;2022-11-15T12:35:20;130.40;;;40.38;;
7881;SDS011;3986;41.884;23.466;2022-11-15T12:37:50;114.88;;;36.13;;
7881;SDS011;3986;41.884;23.466;2022-11-15T12:40:21;137.10;;;48.80;;
7881;SDS011;3986;41.884;23.466;2022-11-15T12:43:02;157.38;;;47.13;;
7881;SDS011;3986;41.884;23.466;2022-11-15T12:45:32;162.20;;;39.47;;
7881;SDS011;3986;41.884;23.466;2022-11-15T12:51:04;132.68;;;28.45;;
7881;SDS011;3986;41.884;23.466;2022-11-15T12:53:32;108.35;;;26.95;;
7881;SDS011;3986;41.884;23.466;2022-11-15T12:58:51;115.13;;;28.90;;
7881;SDS011;3986;41.884;23.466;2022-11-15T13:04:32;101.03;;;28.17;;
7881;SDS011;3986;41.884;23.466;2022-11-15T13:07:01;115.53;;;35.50;;
7881;SDS011;3986;41.884;23.466;2022-11-15T13:18:32;113.30;;;53.95;;
7881;SDS011;3986;41.884;23.466;2022-11-15T13:21:05;145.80;;;61.90;;
7881;SDS011;3986;41.884;23.466;2022-11-15T13:24:03;120.07;;;58.05;;
7881;SDS011;3986;41.884;23.466;2022-11-15T13:26:30;139.88;;;57.58;;
7881;SDS011;3986;41.884;23.466;2022-11-15T13:28:57;117.28;;;52.60;;
7881;SDS011;3986;41.884;23.466;2022-11-15T13:31:33;117.35;;;53.05;;
7881;SDS011;3986;41.884;23.466;2022-11-15T13:34:03;93.07;;;46.13;;
7881;SDS011;3986;41.884;23.466;2022-11-15T13:36:41;92.22;;;39.42;;
7881;SDS011;3986;41.884;23.466;2022-11-15T13:39:12;110.72;;;37.13;;
7881;SDS011;3986;41.884;23.466;2022-11-15T13:41:51;151.70;;;39.88;;
7881;SDS011;3986;41.884;23.466;2022-11-15T13:44:20;53.95;;;34.15;;
7881;SDS011;3986;41.884;23.466;2022-11-15T13:46:49;71.72;;;39.78;;
7881;SDS011;3986;41.884;23.466;2022-11-15T13:49:28;164.70;;;39.70;;
7881;SDS011;3986;41.884;23.466;2022-11-15T13:51:56;73.72;;;41.60;;
7881;SDS011;3986;41.884;23.466;2022-11-15T13:54:24;80.30;;;47.78;;
7881;SDS011;3986;41.884;23.466;2022-11-15T13:56:55;108.82;;;40.33;;
7881;SDS011;3986;41.884;23.466;2022-11-15T13:59:27;118.03;;;46.85;;
7881;SDS011;3986;41.884;23.466;2022-11-15T14:01:58;155.05;;;57.20;;
7881;SDS011;3986;41.884;23.466;2022-11-15T14:04:29;144.35;;;38.88;;
7881;SDS011;3986;41.884;23.466;2022-11-15T14:06:59;126.50;;;35.67;;
7881;SDS011;3986;41.884;23.466;2022-11-15T14:09:31;137.55;;;37.78;;
7881;SDS011;3986;41.884;23.466;2022-11-15T14:12:01;103.05;;;35.17;;
7881;SDS011;3986;41.884;23.466;2022-11-15T14:14:47;89.32;;;32.55;;
7881;SDS011;3986;41.884;23.466;2022-11-15T14:17:19;94.53;;;30.00;;
7881;SDS011;3986;41.884;23.466;2022-11-15T14:19:48;104.18;;;28.20;;
7881;SDS011;3986;41.884;23.466;2022-11-15T14:22:17;63.42;;;28.20;;
7881;SDS011;3986;41.884;23.466;2022-11-15T14:24:47;78.80;;;36.72;;
7881;SDS011;3986;41.884;23.466;2022-11-15T14:27:31;91.97;;;34.85;;
7881;SDS011;3986;41.884;23.466;2022-11-15T14:29:59;83.85;;;35.17;;
7881;SDS011;3986;41.884;23.466;2022-11-15T14:32:27;96.72;;;36.90;;
7881;SDS011;3986;41.884;23.466;2022-11-15T14:34:55;120.47;;;51.47;;
7881;SDS011;3986;41.884;23.466;2022-11-15T14:37:24;136.02;;;55.95;;
7881;SDS011;3986;41.884;23.466;2022-11-15T14:39:52;107.50;;;50.13;;
7881;SDS011;3986;41.884;23.466;2022-11-15T14:42:21;107.22;;;51.55;;
7881;SDS011;3986;41.884;23.466;2022-11-15T14:44:49;91.28;;;55.22;;
7881;SDS011;3986;41.884;23.466;2022-11-15T14:47:16;91.60;;;57.38;;
7881;SDS011;3986;41.884;23.466;2022-11-15T14:49:44;84.90;;;51.08;;
7881;SDS011;3986;41.884;23.466;2022-11-15T14:52:19;82.93;;;62.53;;
7881;SDS011;3986;41.884;23.466;2022-11-15T14:54:52;160.70;;;70.30;;
7881;SDS011;3986;41.884;23.466;2022-11-15T14:57:19;90.65;;;61.90;;
7881;SDS011;3986;41.884;23.466;2022-11-15T14:59:47;61.65;;;49.88;;
7881;SDS011;3986;41.884;23.466;2022-11-15T15:02:15;84.32;;;49.22;;
7881;SDS011;3986;41.884;23.466;2022-11-15T15:04:45;81.88;;;48.85;;
7881;SDS011;3986;41.884;23.466;2022-11-15T15:07:12;83.15;;;51.88;;
7881;SDS011;3986;41.884;23.466;2022-11-15T15:09:39;68.80;;;52.03;;